Time;durP1;ratioP1;P1;durP2;ratioP2;P2;SDS_P1;SDS_P2;PMS_P1;PMS_P2;Temp;Humidity;BMP_temperature;BMP_pressure;BME280_temperature;BME280_humidity;BME280_pressure;Samples;Min_cycle;Max_cycle;Signal;HPM_P1;HPM_P2
2021/08/11 00:00:54;;;;;;;1.00;1.00;;;13.50;90.10;;;;;;2048971;29;20176;-66
2021/08/11 00:01:54;;;;;;;2.50;1.43;;;13.50;90.10;;;;;;2048894;28;20196;-66
2021/08/11 00:02:55;;;;;;;0.93;0.93;;;13.50;90.00;;;;;;2049651;28;20254;-65
2021/08/11 00:03:56;;;;;;;1.77;1.60;;;13.50;90.00;;;;;;2049544;28;20569;-66
2021/08/11 00:04:56;;;;;;;1.67;1.57;;;13.50;90.00;;;;;;2049577;28;20215;-66
2021/08/11 00:05:57;;;;;;;1.33;1.23;;;13.50;90.00;;;;;;2049621;28;20210;-66
2021/08/11 00:06:58;;;;;;;2.97;2.13;;;13.50;90.10;;;;;;2049577;29;20180;-66
2021/08/11 00:07:58;;;;;;;3.13;1.73;;;13.50;90.20;;;;;;2049646;28;20543;-66
2021/08/11 00:09:02;;;;;;;1.10;1.10;;;13.50;90.30;;;;;;2049588;28;20168;-65
2021/08/11 00:10:05;;;;;;;1.50;1.40;;;13.50;90.40;;;;;;2049518;28;20180;-66
2021/08/11 00:11:05;;;;;;;3.45;1.80;;;13.50;90.40;;;;;;2049554;28;20274;-66
2021/08/11 00:12:06;;;;;;;1.40;1.30;;;13.50;90.50;;;;;;2049468;28;20238;-66
2021/08/11 00:13:07;;;;;;;2.85;1.00;;;13.50;90.50;;;;;;2049561;28;20526;-66
2021/08/11 00:14:08;;;;;;;1.53;1.23;;;13.50;90.50;;;;;;2048956;29;20319;-66
2021/08/11 00:15:10;;;;;;;1.37;1.27;;;13.50;90.60;;;;;;2048951;29;20180;-66
2021/08/11 00:16:11;;;;;;;1.65;1.20;;;13.50;90.70;;;;;;2049588;28;20363;-65
2021/08/11 00:17:12;;;;;;;0.90;0.90;;;13.50;90.60;;;;;;2049335;28;20220;-66
2021/08/11 00:18:14;;;;;;;1.47;1.37;;;13.50;90.60;;;;;;2049482;28;20191;-66
2021/08/11 00:19:15;;;;;;;1.95;1.45;;;13.50;90.50;;;;;;2049390;28;20187;-67
2021/08/11 00:20:16;;;;;;;1.57;1.47;;;13.50;90.50;;;;;;2049523;28;20281;-66
2021/08/11 00:21:16;;;;;;;3.97;2.30;;;13.50;90.50;;;;;;2049459;28;20631;-66
2021/08/11 00:22:17;;;;;;;1.60;1.50;;;13.50;90.60;;;;;;2049340;28;20826;-66
2021/08/11 00:23:18;;;;;;;1.40;1.30;;;13.50;90.50;;;;;;2049563;28;20195;-66
2021/08/11 00:24:19;;;;;;;1.77;1.50;;;13.50;90.50;;;;;;2049624;28;20211;-66
2021/08/11 00:25:19;;;;;;;1.03;0.83;;;13.50;90.40;;;;;;2049269;28;20180;-66
2021/08/11 00:26:21;;;;;;;1.67;1.40;;;13.60;90.40;;;;;;2049560;28;20179;-65
2021/08/11 00:27:21;;;;;;;4.68;1.50;;;13.60;90.40;;;;;;2049586;28;20233;-66
2021/08/11 00:28:23;;;;;;;1.63;1.27;;;13.60;90.40;;;;;;2049426;28;20180;-66
2021/08/11 00:29:24;;;;;;;0.70;0.65;;;13.50;90.50;;;;;;2049401;28;20224;-66
2021/08/11 00:30:25;;;;;;;1.17;1.07;;;13.50;90.50;;;;;;2049444;28;20180;-66
2021/08/11 00:31:25;;;;;;;1.47;0.80;;;13.50;90.50;;;;;;2049406;28;20651;-66
2021/08/11 00:32:27;;;;;;;0.93;0.93;;;13.50;90.50;;;;;;2049224;28;20210;-66
2021/08/11 00:33:28;;;;;;;1.30;1.20;;;13.50;90.40;;;;;;2049400;28;20180;-66
2021/08/11 00:34:28;;;;;;;2.23;2.03;;;13.50;90.50;;;;;;2049457;28;20182;-66
2021/08/11 00:35:29;;;;;;;1.03;1.00;;;13.50;90.50;;;;;;2049193;28;20604;-66
2021/08/11 00:36:30;;;;;;;1.53;1.43;;;13.40;90.50;;;;;;2049296;28;20187;-66
2021/08/11 00:37:31;;;;;;;1.83;1.60;;;13.40;90.50;;;;;;2049119;28;20180;-66
2021/08/11 00:38:31;;;;;;;1.53;1.13;;;13.40;90.50;;;;;;2049359;28;20184;-66
2021/08/11 00:39:32;;;;;;;2.33;1.63;;;13.40;90.50;;;;;;2049274;28;20604;-66
2021/08/11 00:40:33;;;;;;;1.57;1.40;;;13.40;90.50;;;;;;2049422;28;20191;-66
2021/08/11 00:41:34;;;;;;;1.63;1.23;;;13.40;90.60;;;;;;2048615;29;20242;-66
2021/08/11 00:42:35;;;;;;;2.17;1.60;;;13.30;90.60;;;;;;2048735;29;20248;-66
2021/08/11 00:43:35;;;;;;;1.15;1.00;;;13.30;90.60;;;;;;2048649;29;20589;-66
2021/08/11 00:44:36;;;;;;;1.03;1.03;;;13.30;90.70;;;;;;2048660;29;20219;-66
2021/08/11 00:45:38;;;;;;;2.70;1.20;;;13.30;90.80;;;;;;2049184;28;20186;-66
2021/08/11 00:46:42;;;;;;;1.90;1.20;;;13.30;90.80;;;;;;2049394;28;20187;-66
2021/08/11 00:47:43;;;;;;;2.55;1.70;;;13.30;90.70;;;;;;2048438;29;20180;-66
2021/08/11 00:48:44;;;;;;;0.93;0.93;;;13.30;90.80;;;;;;2040793;29;20181;-66
2021/08/11 00:49:44;;;;;;;1.30;1.20;;;13.30;90.80;;;;;;2040543;29;20267;-65
2021/08/11 00:50:45;;;;;;;1.30;1.13;;;13.30;90.80;;;;;;2048647;29;20838;-66
2021/08/11 00:51:47;;;;;;;1.87;1.40;;;13.30;90.90;;;;;;2048427;28;20203;-66
2021/08/11 00:52:48;;;;;;;1.67;1.10;;;13.30;90.80;;;;;;2048625;29;20180;-66
2021/08/11 00:53:50;;;;;;;1.43;1.03;;;13.30;90.70;;;;;;2049229;28;20600;-66
2021/08/11 00:54:53;;;;;;;0.82;0.82;;;13.30;90.60;;;;;;2048527;29;20223;-66
2021/08/11 00:55:57;;;;;;;1.10;1.10;;;13.30;90.70;;;;;;2040855;29;20532;-66
2021/08/11 00:56:58;;;;;;;0.70;0.70;;;13.30;90.70;;;;;;2048380;29;20679;-66
2021/08/11 00:57:59;;;;;;;1.57;1.47;;;13.20;90.70;;;;;;2048453;29;20183;-65
2021/08/11 00:59:04;;;;;;;1.25;1.15;;;13.30;90.70;;;;;;2048544;29;20184;-66
2021/08/11 01:00:06;;;;;;;1.90;1.13;;;13.20;90.60;;;;;;2049224;28;20175;-66
2021/08/11 01:01:08;;;;;;;1.83;1.63;;;13.20;90.60;;;;;;2048549;29;20555;-65
2021/08/11 01:02:09;;;;;;;1.02;0.98;;;13.20;90.60;;;;;;2048477;28;20199;-66
2021/08/11 01:03:17;;;;;;;0.93;0.90;;;13.20;90.60;;;;;;2048689;29;20176;-66
2021/08/11 01:04:18;;;;;;;3.00;0.85;;;13.20;90.70;;;;;;2041638;29;20220;-66
2021/08/11 01:05:20;;;;;;;0.82;0.82;;;13.20;90.70;;;;;;2040769;29;20567;-66
2021/08/11 01:06:22;;;;;;;1.52;1.40;;;13.10;91.00;;;;;;2048637;29;20195;-66
2021/08/11 01:07:26;;;;;;;2.20;1.38;;;13.10;91.00;;;;;;2048415;29;20686;-66
2021/08/11 01:08:29;;;;;;;1.92;1.77;;;13.10;91.10;;;;;;2048524;29;20714;-66
2021/08/11 01:09:32;;;;;;;0.88;0.88;;;13.10;91.20;;;;;;2049184;28;20214;-66
2021/08/11 01:10:33;;;;;;;1.67;1.58;;;13.10;91.20;;;;;;2040458;29;20184;-66
2021/08/11 01:11:34;;;;;;;1.03;1.03;;;13.10;91.20;;;;;;2040534;29;20271;-66
2021/08/11 01:12:35;;;;;;;2.85;1.02;;;13.10;91.20;;;;;;2049053;28;20738;-66
2021/08/11 01:13:37;;;;;;;1.63;1.52;;;13.10;91.10;;;;;;2048540;29;20236;-66
2021/08/11 01:14:38;;;;;;;1.60;1.50;;;13.10;91.00;;;;;;2048371;29;20212;-66
2021/08/11 01:15:39;;;;;;;1.63;1.45;;;13.10;90.90;;;;;;2048492;29;20219;-66
2021/08/11 01:16:41;;;;;;;3.08;1.00;;;13.10;90.90;;;;;;2048526;29;20727;-66
2021/08/11 01:17:41;;;;;;;1.63;1.20;;;13.10;91.00;;;;;;2048347;29;20227;-66
2021/08/11 01:18:42;;;;;;;1.00;1.00;;;13.00;91.00;;;;;;2048460;29;20712;-66
2021/08/11 01:19:43;;;;;;;3.00;1.83;;;13.00;91.10;;;;;;2048964;28;20176;-66
2021/08/11 01:21:15;;;;;;;1.03;1.03;;;13.00;91.20;;;;;;2049034;28;20223;-66
2021/08/11 01:22:26;;;;;;;0.88;0.88;;;13.00;91.30;;;;;;2048499;28;20195;-66
2021/08/11 01:23:36;;;;;;;0.88;0.88;;;13.00;91.40;;;;;;2034093;29;20260;-66
2021/08/11 01:25:02;;;;;;;0.98;0.98;;;12.90;91.40;;;;;;2041732;29;20255;-66
2021/08/11 01:26:23;;;;;;;1.40;1.15;;;13.00;91.30;;;;;;2043910;29;20160;-66
2021/08/11 01:28:07;;;;;;;1.95;1.25;;;13.00;91.30;;;;;;2042988;29;20175;-65
2021/08/11 01:29:14;;;;;;;1.63;1.52;;;13.00;91.40;;;;;;2046001;29;20179;-66
2021/08/11 01:30:30;;;;;;;1.45;1.35;;;12.90;91.30;;;;;;2041355;29;20179;-66
2021/08/11 01:31:47;;;;;;;1.75;1.65;;;12.90;91.20;;;;;;2048541;29;20235;-67
2021/08/11 01:32:59;;;;;;;1.80;1.30;;;12.90;91.10;;;;;;2048569;29;20187;-66
2021/08/11 01:34:07;;;;;;;1.30;1.20;;;12.90;91.00;;;;;;2048809;29;20192;-66
2021/08/11 01:35:11;;;;;;;1.00;0.82;;;12.90;91.20;;;;;;2049252;28;20176;-67
2021/08/11 01:36:25;;;;;;;1.45;1.05;;;12.90;91.20;;;;;;2049503;28;20552;-66
2021/08/11 01:37:31;;;;;;;2.65;1.58;;;12.90;91.20;;;;;;2048690;28;20198;-66
2021/08/11 01:38:34;;;;;;;1.00;0.90;;;12.90;91.30;;;;;;2048414;29;20300;-66
2021/08/11 01:39:50;;;;;;;1.45;1.00;;;12.80;91.30;;;;;;2040843;28;20188;-66
2021/08/11 01:41:02;;;;;;;1.50;1.15;;;12.80;91.30;;;;;;2042506;29;20183;-66
2021/08/11 01:42:09;;;;;;;0.68;0.68;;;12.80;91.40;;;;;;2041917;29;20290;-66
2021/08/11 01:43:10;;;;;;;1.13;1.10;;;12.70;91.40;;;;;;2046433;28;20300;-66
2021/08/11 01:44:12;;;;;;;1.85;1.75;;;12.70;91.40;;;;;;2048348;28;20678;-66
2021/08/11 01:45:19;;;;;;;1.25;1.20;;;12.70;91.40;;;;;;2056465;28;20226;-66
2021/08/11 01:46:20;;;;;;;3.10;1.40;;;12.70;91.40;;;;;;2049044;28;20192;-66
2021/08/11 01:47:28;;;;;;;1.67;1.55;;;12.70;91.40;;;;;;2048215;28;20180;-65
2021/08/11 01:48:31;;;;;;;1.33;1.05;;;12.70;91.30;;;;;;2049230;28;20651;-66
2021/08/11 01:49:35;;;;;;;1.27;1.10;;;12.70;91.20;;;;;;2056291;28;20203;-66
2021/08/11 01:50:42;;;;;;;0.70;0.70;;;12.70;91.20;;;;;;2056457;28;20266;-66
2021/08/11 01:51:46;;;;;;;0.80;0.80;;;12.70;91.20;;;;;;2049027;28;20192;-66
2021/08/11 01:52:49;;;;;;;0.90;0.90;;;12.70;91.20;;;;;;2048690;28;20179;-66
2021/08/11 01:53:50;;;;;;;2.25;1.23;;;12.70;91.20;;;;;;2048387;28;20198;-66
2021/08/11 01:54:51;;;;;;;1.73;1.10;;;12.70;91.60;;;;;;2048138;29;20186;-66
2021/08/11 01:55:56;;;;;;;0.77;0.68;;;12.70;91.60;;;;;;2056153;28;20183;-66
2021/08/11 01:56:57;;;;;;;1.58;1.15;;;12.70;91.70;;;;;;2056841;28;20171;-66
2021/08/11 01:57:58;;;;;;;1.63;1.37;;;12.70;91.60;;;;;;2056845;28;20221;-66
2021/08/11 01:59:01;;;;;;;1.10;1.10;;;12.70;91.50;;;;;;2056800;28;20174;-66
2021/08/11 02:00:04;;;;;;;1.08;1.08;;;12.70;91.40;;;;;;2056697;28;20929;-66
2021/08/11 02:01:07;;;;;;;1.10;1.10;;;12.70;91.40;;;;;;2048063;29;20187;-65
2021/08/11 02:02:11;;;;;;;1.33;1.23;;;12.70;91.40;;;;;;2048372;28;20192;-66
2021/08/11 02:03:12;;;;;;;1.08;1.02;;;12.70;91.40;;;;;;2056290;28;20525;-66
2021/08/11 02:04:14;;;;;;;1.10;1.10;;;12.70;91.50;;;;;;2048111;28;20312;-66
2021/08/11 02:05:16;;;;;;;0.88;0.88;;;12.60;91.60;;;;;;2056188;28;20210;-65
2021/08/11 02:06:17;;;;;;;1.17;1.08;;;12.60;91.60;;;;;;2056076;28;20599;-66
2021/08/11 02:07:18;;;;;;;1.25;1.15;;;12.60;91.70;;;;;;2048215;28;20175;-66
2021/08/11 02:08:21;;;;;;;1.30;1.20;;;12.60;91.70;;;;;;2048229;29;20552;-66
2021/08/11 02:09:23;;;;;;;2.22;1.35;;;12.60;91.60;;;;;;2048336;28;20191;-66
2021/08/11 02:10:23;;;;;;;4.43;1.10;;;12.60;91.50;;;;;;2048244;28;20338;-66
2021/08/11 02:11:24;;;;;;;1.07;0.97;;;12.70;91.40;;;;;;2048170;29;20188;-66
2021/08/11 02:12:25;;;;;;;1.70;1.53;;;12.70;91.30;;;;;;2056170;28;20203;-65
2021/08/11 02:13:27;;;;;;;1.47;1.13;;;12.60;91.40;;;;;;2056710;28;20175;-67
2021/08/11 02:14:28;;;;;;;1.80;1.00;;;12.60;91.40;;;;;;2056811;28;20195;-67
2021/08/11 02:15:28;;;;;;;5.40;1.27;;;12.60;91.40;;;;;;2055997;28;20183;-66
2021/08/11 02:16:29;;;;;;;0.87;0.87;;;12.60;91.50;;;;;;2048188;29;20922;-66
2021/08/11 02:17:30;;;;;;;0.60;0.60;;;12.60;91.50;;;;;;2055963;28;20183;-66
2021/08/11 02:18:31;;;;;;;1.33;1.10;;;12.60;91.40;;;;;;2056744;28;20559;-66
2021/08/11 02:19:32;;;;;;;3.23;1.00;;;12.60;91.40;;;;;;2056633;28;20183;-66
2021/08/11 02:20:33;;;;;;;1.38;0.90;;;12.60;91.40;;;;;;2056125;28;20175;-66
2021/08/11 02:21:34;;;;;;;1.60;0.93;;;12.60;91.40;;;;;;2056071;28;20567;-66
2021/08/11 02:22:34;;;;;;;1.63;1.53;;;12.50;91.30;;;;;;2056741;28;20503;-66
2021/08/11 02:23:36;;;;;;;0.70;0.70;;;12.50;91.30;;;;;;2056749;28;20282;-65
2021/08/11 02:24:36;;;;;;;1.00;1.00;;;12.50;91.20;;;;;;2056572;28;20575;-65
2021/08/11 02:25:52;;;;;;;3.03;1.77;;;12.50;91.20;;;;;;2055937;28;20203;-66
2021/08/11 02:27:18;;;;;;;1.48;1.30;;;12.50;91.30;;;;;;2049858;28;20172;-66
2021/08/11 02:29:08;;;;;;;1.55;1.45;;;12.50;91.40;;;;;;2051400;28;20167;-66
2021/08/11 02:30:13;;;;;;;1.73;1.63;;;12.50;91.40;;;;;;2054707;28;20171;-66
2021/08/11 02:31:37;;;;;;;1.10;1.05;;;12.50;91.40;;;;;;2056206;28;20210;-66
2021/08/11 02:32:55;;;;;;;1.58;1.30;;;12.50;91.50;;;;;;2051364;28;20700;-66
2021/08/11 02:34:38;;;;;;;5.93;1.60;;;12.40;91.60;;;;;;2050246;28;20207;-66
2021/08/11 02:35:54;;;;;;;1.33;0.93;;;12.50;91.70;;;;;;2045452;29;20171;-66
2021/08/11 02:37:02;;;;;;;2.63;1.73;;;12.50;91.60;;;;;;2050303;28;20164;-66
2021/08/11 02:38:43;;;;;;;0.73;0.73;;;12.50;91.50;;;;;;2055980;28;20214;-66
2021/08/11 02:40:04;;;;;;;1.20;1.05;;;12.50;91.50;;;;;;2056434;28;20638;-66
2021/08/11 02:41:12;;;;;;;0.85;0.80;;;12.50;91.40;;;;;;2056047;28;20259;-66
2021/08/11 02:42:25;;;;;;;1.52;1.45;;;12.40;91.60;;;;;;2048923;28;20265;-66
2021/08/11 02:43:52;;;;;;;4.57;1.67;;;12.40;91.80;;;;;;2049823;28;20167;-66
2021/08/11 02:44:56;;;;;;;1.15;1.15;;;12.40;91.80;;;;;;2051442;28;20254;-66
2021/08/11 02:46:06;;;;;;;1.80;0.88;;;12.40;91.90;;;;;;2048326;28;20287;-66
2021/08/11 02:47:08;;;;;;;1.77;1.52;;;12.40;91.90;;;;;;2052308;28;20242;-67
2021/08/11 02:48:12;;;;;;;1.05;0.95;;;12.40;91.90;;;;;;2043681;28;20271;-66
2021/08/11 02:49:25;;;;;;;1.63;1.15;;;12.40;91.90;;;;;;2049590;28;20187;-66
2021/08/11 02:50:26;;;;;;;0.95;0.95;;;12.30;91.90;;;;;;2051155;28;20191;-66
2021/08/11 02:51:30;;;;;;;0.65;0.65;;;12.40;91.90;;;;;;2057429;28;20187;-65
2021/08/11 02:52:32;;;;;;;1.42;1.33;;;12.40;91.90;;;;;;2049409;28;20210;-66
2021/08/11 02:53:34;;;;;;;2.85;1.58;;;12.40;91.80;;;;;;2041798;28;20191;-66
2021/08/11 02:54:39;;;;;;;1.27;0.90;;;12.40;91.80;;;;;;2049675;28;20512;-66
2021/08/11 02:55:40;;;;;;;1.08;0.85;;;12.40;91.70;;;;;;2057551;28;20183;-66
2021/08/11 02:56:46;;;;;;;2.85;1.00;;;12.40;91.70;;;;;;2049644;28;20187;-66
2021/08/11 02:57:50;;;;;;;1.48;1.33;;;12.40;91.60;;;;;;2050016;28;20559;-66
2021/08/11 02:58:51;;;;;;;1.73;1.52;;;12.40;91.60;;;;;;2050021;28;20232;-66
2021/08/11 02:59:53;;;;;;;2.13;1.35;;;12.30;91.60;;;;;;2049325;28;20186;-66
2021/08/11 03:00:55;;;;;;;0.95;0.95;;;12.40;91.50;;;;;;2049587;28;20640;-66
2021/08/11 03:01:57;;;;;;;1.92;1.33;;;12.30;91.50;;;;;;2049568;28;20203;-67
2021/08/11 03:02:58;;;;;;;2.13;1.42;;;12.30;91.60;;;;;;2057467;28;20176;-67
2021/08/11 03:03:59;;;;;;;0.80;0.80;;;12.30;91.60;;;;;;2057356;28;20302;-67
2021/08/11 03:05:01;;;;;;;1.63;1.10;;;12.40;91.60;;;;;;2049560;28;20897;-67
2021/08/11 03:06:02;;;;;;;0.80;0.80;;;12.30;91.50;;;;;;2057281;28;20186;-66
2021/08/11 03:07:03;;;;;;;1.48;1.38;;;12.40;91.50;;;;;;2057341;28;20183;-66
2021/08/11 03:08:06;;;;;;;2.22;1.13;;;12.30;91.50;;;;;;2057403;28;20179;-66
2021/08/11 03:09:08;;;;;;;0.93;0.93;;;12.30;91.50;;;;;;2057406;28;20171;-67
2021/08/11 03:10:10;;;;;;;1.65;1.35;;;12.30;91.60;;;;;;2049844;28;20203;-66
2021/08/11 03:11:12;;;;;;;1.15;1.13;;;12.30;91.60;;;;;;2057353;28;20171;-67
2021/08/11 03:12:13;;;;;;;0.65;0.65;;;12.30;91.60;;;;;;2057311;28;20194;-67
2021/08/11 03:13:14;;;;;;;1.43;1.33;;;12.20;91.80;;;;;;2057744;28;20654;-66
2021/08/11 03:14:16;;;;;;;1.13;1.13;;;12.20;91.90;;;;;;2057532;28;20427;-66
2021/08/11 03:15:17;;;;;;;1.00;0.85;;;12.20;91.90;;;;;;2049682;28;20183;-66
2021/08/11 03:16:18;;;;;;;1.45;1.27;;;12.20;91.90;;;;;;2057499;28;20274;-67
2021/08/11 03:17:19;;;;;;;1.40;1.33;;;12.20;91.90;;;;;;2057729;28;20183;-66
2021/08/11 03:18:20;;;;;;;1.27;1.10;;;12.20;91.90;;;;;;2057225;28;20506;-67
2021/08/11 03:19:21;;;;;;;1.43;1.33;;;12.20;91.90;;;;;;2049323;29;20814;-66
2021/08/11 03:20:22;;;;;;;1.43;1.10;;;12.20;91.90;;;;;;2057396;28;20752;-66
2021/08/11 03:21:23;;;;;;;1.33;1.23;;;12.20;92.00;;;;;;2057368;28;20180;-67
2021/08/11 03:22:24;;;;;;;2.05;1.95;;;12.20;92.00;;;;;;2057215;28;20282;-67
2021/08/11 03:23:24;;;;;;;1.70;1.53;;;12.20;92.10;;;;;;2057305;28;20175;-67
2021/08/11 03:24:25;;;;;;;0.70;0.70;;;12.20;92.00;;;;;;2057785;28;20217;-66
2021/08/11 03:25:26;;;;;;;3.77;1.67;;;12.20;92.00;;;;;;2058033;28;20677;-66
2021/08/11 03:26:27;;;;;;;1.73;1.63;;;12.20;92.10;;;;;;2057940;28;20217;-66
2021/08/11 03:27:27;;;;;;;1.00;1.00;;;12.10;92.10;;;;;;2057843;28;20186;-66
2021/08/11 03:28:28;;;;;;;0.73;0.73;;;12.10;92.10;;;;;;2057921;28;20642;-66
2021/08/11 03:29:29;;;;;;;1.30;1.25;;;12.10;92.10;;;;;;2057843;28;20183;-67
2021/08/11 03:30:30;;;;;;;1.83;1.73;;;12.20;92.10;;;;;;2058073;28;20222;-66
2021/08/11 03:31:31;;;;;;;3.60;1.70;;;12.20;91.90;;;;;;2057197;28;20189;-67
2021/08/11 03:32:31;;;;;;;1.27;1.20;;;12.20;92.00;;;;;;2049343;28;20298;-66
2021/08/11 03:33:32;;;;;;;1.67;1.07;;;12.10;92.00;;;;;;2057193;28;20597;-66
2021/08/11 03:34:34;;;;;;;1.40;0.87;;;12.10;92.00;;;;;;2049281;28;20215;-67
2021/08/11 03:35:35;;;;;;;1.60;1.23;;;12.10;92.00;;;;;;2057356;28;20191;-66
2021/08/11 03:36:36;;;;;;;1.13;1.13;;;12.10;92.10;;;;;;2057906;28;20183;-66
2021/08/11 03:37:36;;;;;;;1.83;1.20;;;12.10;92.10;;;;;;2057793;28;20202;-67
2021/08/11 03:38:37;;;;;;;1.53;1.43;;;12.10;92.10;;;;;;2057978;28;20266;-67
2021/08/11 03:39:38;;;;;;;1.47;1.37;;;12.10;92.00;;;;;;2057956;28;20923;-66
2021/08/11 03:40:38;;;;;;;2.20;1.13;;;12.10;92.00;;;;;;2058025;28;20192;-67
2021/08/11 03:41:39;;;;;;;1.23;1.17;;;12.10;91.90;;;;;;2057676;28;20686;-66
2021/08/11 03:42:40;;;;;;;1.87;1.17;;;12.10;92.00;;;;;;2058052;28;20183;-66
2021/08/11 03:43:41;;;;;;;2.67;0.95;;;12.10;92.00;;;;;;2055297;28;20687;-67
2021/08/11 03:44:42;;;;;;;1.17;1.07;;;12.10;92.00;;;;;;2049173;29;20271;-67
2021/08/11 03:45:43;;;;;;;1.23;1.13;;;12.10;92.00;;;;;;2049815;28;20556;-67
2021/08/11 03:46:44;;;;;;;1.67;1.00;;;12.10;91.90;;;;;;2049791;28;20176;-66
2021/08/11 03:47:45;;;;;;;0.93;0.80;;;12.10;91.90;;;;;;2049699;28;20180;-67
2021/08/11 03:48:46;;;;;;;3.67;1.63;;;12.10;92.40;;;;;;2049842;28;20266;-67
2021/08/11 03:49:49;;;;;;;2.23;1.50;;;12.10;92.00;;;;;;2049660;28;20176;-66
2021/08/11 03:50:50;;;;;;;1.48;1.27;;;12.10;92.00;;;;;;2049760;28;20234;-66
2021/08/11 03:51:51;;;;;;;1.50;1.40;;;12.10;92.10;;;;;;2048964;28;20188;-66
2021/08/11 03:52:52;;;;;;;1.70;1.60;;;12.10;92.20;;;;;;2049156;29;20180;-66
2021/08/11 03:53:53;;;;;;;4.00;1.35;;;12.10;92.20;;;;;;2049080;29;20258;-66
2021/08/11 03:54:53;;;;;;;3.30;1.10;;;12.10;92.10;;;;;;2049153;29;20176;-66
2021/08/11 03:55:54;;;;;;;1.17;1.07;;;12.10;92.10;;;;;;2049636;28;20172;-66
2021/08/11 03:56:55;;;;;;;0.83;0.83;;;12.10;92.00;;;;;;2049534;28;20647;-67
2021/08/11 03:57:56;;;;;;;1.27;1.17;;;12.10;92.00;;;;;;2049672;28;20218;-67
2021/08/11 03:58:57;;;;;;;1.63;1.30;;;12.10;92.00;;;;;;2049628;28;20673;-66
2021/08/11 03:59:57;;;;;;;1.63;1.07;;;12.10;92.00;;;;;;2048826;28;20172;-66
2021/08/11 04:00:58;;;;;;;1.30;1.20;;;12.10;92.00;;;;;;2049590;28;20267;-66
2021/08/11 04:01:59;;;;;;;2.87;1.50;;;12.10;92.20;;;;;;2048941;28;20290;-66
2021/08/11 04:02:59;;;;;;;1.53;0.97;;;12.10;92.20;;;;;;2049161;29;20232;-67
2021/08/11 04:04:00;;;;;;;1.77;1.40;;;12.10;92.40;;;;;;2049609;28;20246;-66
2021/08/11 04:05:05;;;;;;;1.13;0.80;;;12.10;92.30;;;;;;2048903;28;20585;-67
2021/08/11 04:06:06;;;;;;;0.98;0.88;;;12.10;92.30;;;;;;2048896;29;20199;-66
2021/08/11 04:07:07;;;;;;;2.00;1.00;;;12.10;92.30;;;;;;2049486;28;20211;-66
2021/08/11 04:08:08;;;;;;;1.08;1.08;;;12.20;92.30;;;;;;2049668;28;20176;-66
2021/08/11 04:09:08;;;;;;;2.43;1.37;;;12.20;92.40;;;;;;2049580;28;20523;-66
2021/08/11 04:10:11;;;;;;;0.90;0.90;;;12.20;92.30;;;;;;2049722;28;20227;-66
2021/08/11 04:11:12;;;;;;;7.05;1.83;;;12.20;92.20;;;;;;2048829;29;20275;-66
2021/08/11 04:12:12;;;;;;;1.13;0.73;;;12.20;92.20;;;;;;2040925;29;20260;-66
2021/08/11 04:13:18;;;;;;;0.97;0.97;;;12.20;92.20;;;;;;2048841;29;20259;-66
2021/08/11 04:14:19;;;;;;;0.93;0.90;;;12.20;92.20;;;;;;2049549;28;20255;-66
2021/08/11 04:15:19;;;;;;;1.57;1.30;;;12.20;92.20;;;;;;2049490;29;20192;-66
2021/08/11 04:16:20;;;;;;;1.43;1.20;;;12.20;92.10;;;;;;2049640;28;20188;-66
2021/08/11 04:17:21;;;;;;;3.03;1.43;;;12.20;92.20;;;;;;2049391;28;20682;-66
2021/08/11 04:18:21;;;;;;;1.13;1.03;;;12.20;92.40;;;;;;2049600;28;20720;-67
2021/08/11 04:19:22;;;;;;;0.70;0.70;;;12.20;92.50;;;;;;2049407;28;20267;-66
2021/08/11 04:20:23;;;;;;;1.17;0.77;;;12.30;92.40;;;;;;2049548;28;20201;-66
2021/08/11 04:21:24;;;;;;;0.70;0.70;;;12.30;92.30;;;;;;2049457;28;20195;-66
2021/08/11 04:22:25;;;;;;;1.63;0.90;;;12.30;92.20;;;;;;2049405;28;20630;-66
2021/08/11 04:23:27;;;;;;;1.15;1.10;;;12.30;92.20;;;;;;2048968;29;20208;-66
2021/08/11 04:24:28;;;;;;;1.33;1.23;;;12.30;92.20;;;;;;2048843;29;20203;-66
2021/08/11 04:25:29;;;;;;;2.40;2.20;;;12.30;92.10;;;;;;2049419;28;20176;-65
2021/08/11 04:26:30;;;;;;;1.20;1.10;;;12.30;92.10;;;;;;2049488;28;20191;-66
2021/08/11 04:27:30;;;;;;;3.07;1.60;;;12.30;92.00;;;;;;2049224;28;20180;-66
2021/08/11 04:28:31;;;;;;;1.70;1.47;;;12.30;91.90;;;;;;2048866;29;20172;-66
2021/08/11 04:29:32;;;;;;;1.63;1.17;;;12.30;91.90;;;;;;2048559;29;20577;-66
2021/08/11 04:30:33;;;;;;;1.90;1.70;;;12.40;92.00;;;;;;2048655;29;20172;-66
2021/08/11 04:31:34;;;;;;;1.42;1.33;;;12.40;92.00;;;;;;2048613;29;20184;-66
2021/08/11 04:32:38;;;;;;;1.63;1.37;;;12.40;92.10;;;;;;2049311;28;20210;-66
2021/08/11 04:33:38;;;;;;;1.45;1.33;;;12.30;92.20;;;;;;2049255;28;20187;-66
2021/08/11 04:34:39;;;;;;;1.70;1.37;;;12.40;92.30;;;;;;2049224;28;20234;-66
2021/08/11 04:35:40;;;;;;;1.57;1.47;;;12.40;92.40;;;;;;2049234;28;20551;-66
2021/08/11 04:36:41;;;;;;;1.30;1.20;;;12.40;92.40;;;;;;2048632;29;20266;-66
2021/08/11 04:37:41;;;;;;;0.87;0.87;;;12.50;92.40;;;;;;2048419;29;20191;-66
2021/08/11 04:38:42;;;;;;;1.30;1.20;;;12.50;92.40;;;;;;2049180;28;20552;-66
2021/08/11 04:39:43;;;;;;;0.80;0.80;;;12.50;92.30;;;;;;2049062;28;20211;-66
2021/08/11 04:40:45;;;;;;;0.60;0.60;;;12.50;92.30;;;;;;2048628;29;20223;-66
2021/08/11 04:41:46;;;;;;;2.10;1.45;;;12.50;92.30;;;;;;2048328;28;20188;-65
2021/08/11 04:42:46;;;;;;;5.78;1.00;;;12.50;92.20;;;;;;2049228;28;20606;-65
2021/08/11 04:43:47;;;;;;;1.33;1.27;;;12.50;92.20;;;;;;2048417;28;20180;-66
2021/08/11 04:44:48;;;;;;;0.70;0.70;;;12.60;92.10;;;;;;2048595;29;20834;-66
2021/08/11 04:45:49;;;;;;;1.50;1.17;;;12.60;92.00;;;;;;2049160;28;20266;-66
2021/08/11 04:46:49;;;;;;;1.17;1.07;;;12.60;91.70;;;;;;2048371;29;20222;-67
2021/08/11 04:47:50;;;;;;;1.23;0.90;;;12.60;91.70;;;;;;2048466;29;20195;-66
2021/08/11 04:48:51;;;;;;;1.67;1.57;;;12.60;91.70;;;;;;2049264;28;20175;-66
2021/08/11 04:49:51;;;;;;;1.17;1.13;;;12.60;91.80;;;;;;2049034;28;20596;-66
2021/08/11 04:50:52;;;;;;;0.90;0.90;;;12.70;91.80;;;;;;2049121;28;20179;-66
2021/08/11 04:51:53;;;;;;;2.50;1.17;;;12.70;91.70;;;;;;2049086;28;20238;-66
2021/08/11 04:52:53;;;;;;;2.80;1.83;;;12.70;91.80;;;;;;2049080;28;20258;-66
2021/08/11 04:53:54;;;;;;;0.77;0.77;;;12.70;91.90;;;;;;2049116;28;20183;-66
2021/08/11 04:54:55;;;;;;;1.30;1.20;;;12.80;91.90;;;;;;2048384;28;20679;-65
2021/08/11 04:55:55;;;;;;;1.60;1.50;;;12.80;91.90;;;;;;2044074;29;20209;-67
2021/08/11 04:56:56;;;;;;;1.20;1.10;;;12.80;91.90;;;;;;2040509;29;20192;-66
2021/08/11 04:57:57;;;;;;;2.13;1.83;;;12.80;91.90;;;;;;2041094;29;20180;-66
2021/08/11 04:58:57;;;;;;;1.30;1.20;;;12.80;91.80;;;;;;2041073;29;20180;-66
2021/08/11 04:59:58;;;;;;;0.77;0.77;;;12.80;91.60;;;;;;2040211;29;20723;-66
2021/08/11 05:00:59;;;;;;;1.10;1.10;;;12.80;91.60;;;;;;2040378;29;20181;-66
2021/08/11 05:01:59;;;;;;;0.80;0.80;;;12.80;91.50;;;;;;2041008;29;20200;-66
2021/08/11 05:03:00;;;;;;;0.90;0.90;;;12.80;91.40;;;;;;2041041;29;20511;-66
2021/08/11 05:04:01;;;;;;;1.25;1.25;;;12.80;91.40;;;;;;2040944;29;20640;-66
2021/08/11 05:05:02;;;;;;;1.13;1.07;;;12.80;91.30;;;;;;2040286;29;20246;-66
2021/08/11 05:06:09;;;;;;;0.70;0.70;;;12.90;91.30;;;;;;2040403;29;20180;-66
2021/08/11 05:07:10;;;;;;;1.77;1.20;;;12.90;91.20;;;;;;2047882;29;20663;-65
2021/08/11 05:08:11;;;;;;;1.17;1.03;;;12.90;91.10;;;;;;2048309;29;20180;-65
2021/08/11 05:09:11;;;;;;;1.13;1.13;;;12.90;91.10;;;;;;2040790;29;20302;-66
2021/08/11 05:10:12;;;;;;;0.83;0.83;;;12.90;91.00;;;;;;2040959;29;20219;-66
2021/08/11 05:11:13;;;;;;;1.07;1.07;;;13.00;91.10;;;;;;2039713;29;20196;-66
2021/08/11 05:12:13;;;;;;;1.20;1.10;;;13.00;91.10;;;;;;2039544;29;20204;-66
2021/08/11 05:13:14;;;;;;;2.00;1.50;;;13.00;91.10;;;;;;2040966;29;20176;-66
2021/08/11 05:14:15;;;;;;;1.13;1.10;;;13.00;91.10;;;;;;2041029;29;20779;-74
2021/08/11 05:15:16;;;;;;;0.97;0.97;;;13.00;91.10;;;;;;2040956;29;20495;-66
2021/08/11 05:16:17;;;;;;;1.77;1.30;;;13.00;91.10;;;;;;2041123;29;20220;-65
2021/08/11 05:17:21;;;;;;;1.07;1.07;;;13.10;91.10;;;;;;2039966;29;20185;-66
2021/08/11 05:18:22;;;;;;;1.42;1.15;;;13.10;91.10;;;;;;2040416;29;20576;-66
2021/08/11 05:19:22;;;;;;;1.23;1.13;;;13.00;91.20;;;;;;2040689;29;20313;-66
2021/08/11 05:20:23;;;;;;;1.43;1.20;;;13.10;91.30;;;;;;2041071;29;20306;-66
2021/08/11 05:21:25;;;;;;;1.03;0.93;;;13.10;91.20;;;;;;2040980;29;20188;-66
2021/08/11 05:22:25;;;;;;;0.90;0.90;;;13.10;91.20;;;;;;2040993;29;20204;-66
2021/08/11 05:23:27;;;;;;;2.27;1.43;;;13.10;91.20;;;;;;2041065;29;20271;-66
2021/08/11 05:24:28;;;;;;;1.58;1.48;;;13.20;91.10;;;;;;2040993;29;20208;-66
2021/08/11 05:25:29;;;;;;;1.73;1.23;;;13.20;91.10;;;;;;2040364;29;20302;-66
2021/08/11 05:26:29;;;;;;;2.00;1.05;;;13.20;91.10;;;;;;2040441;29;20287;-66
2021/08/11 05:27:30;;;;;;;1.20;1.07;;;13.30;91.10;;;;;;2047796;29;20176;-66
2021/08/11 05:28:31;;;;;;;0.73;0.73;;;13.30;91.10;;;;;;2040909;29;20204;-65
2021/08/11 05:29:32;;;;;;;1.63;1.13;;;13.30;91.10;;;;;;2040510;29;20185;-66